createdAt,value
2019-01-26T01:01:29.296Z,1
2019-01-26T04:30:51.460Z,1
2019-01-26T04:31:51.444Z,1
2019-01-26T04:32:51.438Z,1
2019-01-26T04:33:51.422Z,1
2019-01-26T04:36:51.387Z,1
2019-01-26T04:37:51.378Z,1
2019-01-26T04:38:51.366Z,1
2019-01-26T04:40:51.350Z,1
2019-01-26T04:41:51.333Z,1
2019-01-26T04:42:51.321Z,1
2019-01-26T04:43:51.310Z,1
2019-01-26T04:44:51.299Z,1
2019-01-26T04:47:51.265Z,1
2019-01-26T04:48:51.261Z,1
2019-01-26T04:49:51.249Z,1
2019-01-26T04:50:51.236Z,1
2019-01-26T04:51:51.222Z,1
2019-01-26T04:52:51.213Z,1
2019-01-26T04:53:51.202Z,1
2019-01-26T04:55:51.177Z,1
2019-01-26T04:56:51.164Z,1
2019-01-26T04:57:51.159Z,1
2019-01-26T04:58:51.145Z,1
2019-01-26T04:59:51.132Z,1
2019-01-26T05:00:51.119Z,1
2019-01-26T05:01:51.109Z,1
2019-01-26T05:02:51.096Z,1
2019-01-26T05:03:51.099Z,1
2019-01-26T05:05:51.063Z,1
2019-01-26T05:07:51.060Z,1
2019-01-26T05:11:50.996Z,1
2019-01-26T05:12:50.988Z,1
2019-01-26T05:13:50.981Z,1
2019-01-26T05:14:50.963Z,1
2019-01-26T05:15:50.955Z,1
2019-01-26T05:16:50.940Z,1
2019-01-26T05:17:50.926Z,1
2019-01-26T05:18:50.919Z,1
2019-01-26T05:19:50.910Z,1
2019-01-26T05:20:50.897Z,1
2019-01-26T05:21:50.883Z,1
2019-01-26T05:24:50.854Z,1
2019-01-26T05:25:50.841Z,1
2019-01-26T05:26:50.829Z,1
2019-01-26T05:31:50.771Z,1
2019-01-26T05:35:50.735Z,1
2019-01-26T05:38:50.701Z,1
2019-01-26T05:44:50.622Z,1
2019-01-26T05:48:50.576Z,1
2019-01-26T05:50:50.554Z,1
2019-01-26T05:51:50.543Z,1
2019-01-26T05:56:50.492Z,1
2019-01-26T05:59:50.454Z,1
2019-01-26T06:01:50.438Z,1
2019-01-26T06:02:50.421Z,1
2019-01-26T06:10:50.330Z,1
2019-01-26T06:11:50.319Z,1
2019-01-26T06:13:50.294Z,1
2019-01-26T06:14:50.290Z,1
2019-01-26T06:21:50.219Z,1
2019-01-26T06:22:50.212Z,1
2019-01-26T06:23:50.216Z,1
2019-01-26T06:24:50.220Z,1
2019-01-26T06:25:50.163Z,1
2019-01-26T06:26:50.150Z,1
2019-01-26T06:27:50.136Z,1
2019-01-26T06:29:50.111Z,1
2019-01-26T06:30:50.100Z,11.
2019-01-26T06:31:50.096Z,11.
2019-01-26T06:32:50.078Z,9.
2019-01-26T06:33:50.066Z,11.
2019-01-26T06:34:50.060Z,9.
2019-01-26T06:35:50.048Z,10.
2019-01-26T06:36:50.041Z,9.
2019-01-26T06:37:50.023Z,10.
2019-01-26T06:38:50.010Z,10.
2019-01-26T06:39:50.002Z,8.
2019-01-26T06:40:49.987Z,9.
2019-01-26T06:41:49.977Z,9.
2019-01-26T06:42:49.972Z,9.
2019-01-26T06:43:49.953Z,10.
2019-01-26T06:44:49.942Z,9.
2019-01-26T06:45:49.937Z,31.
2019-01-26T06:46:49.920Z,14.
2019-01-26T06:47:49.912Z,15.
2019-01-26T06:48:49.898Z,10.
2019-01-26T06:49:49.886Z,10.
2019-01-26T06:50:49.879Z,10.
2019-01-26T06:51:49.863Z,10.
2019-01-26T06:52:49.851Z,9.
2019-01-26T06:53:49.845Z,9.
2019-01-26T06:54:49.836Z,10.
2019-01-26T06:55:49.817Z,9.
2019-01-26T06:56:49.807Z,9.
2019-01-26T06:57:49.794Z,10.
2019-01-26T06:58:49.788Z,9.
2019-01-26T06:59:49.772Z,9.
2019-01-26T07:00:49.761Z,10.
2019-01-26T07:01:49.751Z,9.
2019-01-26T07:02:49.743Z,9.
2019-01-26T07:03:49.729Z,10.
2019-01-26T07:04:49.717Z,8.
2019-01-26T07:05:49.706Z,9.
2019-01-26T07:06:49.694Z,8.
2019-01-26T07:07:49.682Z,9.
2019-01-26T07:08:49.671Z,8.
2019-01-26T07:09:49.659Z,10.
2019-01-26T07:10:49.651Z,9.
2019-01-26T07:11:49.635Z,9.
2019-01-26T07:12:49.632Z,11.
2019-01-26T07:13:49.614Z,9.
2019-01-26T07:14:49.602Z,8.80
2019-01-26T07:15:49.592Z,9.00
2019-01-26T07:16:49.579Z,9.10
2019-01-26T07:17:49.568Z,9.19
2019-01-26T07:18:49.558Z,12.30
2019-01-26T07:19:49.545Z,10.50
2019-01-26T07:20:49.533Z,9.00
2019-01-26T07:21:49.524Z,8.10
2019-01-26T07:22:49.518Z,8.80
2019-01-26T07:23:49.506Z,10.00
2019-01-26T07:24:49.490Z,10.30
2019-01-26T07:25:49.482Z,8.30
2019-01-26T07:26:49.466Z,9.30
2019-01-26T07:27:49.456Z,10.19
2019-01-26T07:28:49.443Z,10.30
2019-01-26T07:29:49.432Z,9.80
2019-01-26T07:30:49.421Z,10.69
2019-01-26T07:31:49.414Z,9.80
2019-01-26T07:32:49.401Z,9.69
2019-01-26T07:33:49.387Z,9.39
2019-01-26T07:34:49.377Z,8.60
2019-01-26T07:35:49.368Z,8.19
2019-01-26T07:36:49.353Z,9.10
2019-01-26T07:37:49.344Z,8.39
2019-01-26T07:38:49.331Z,7.50
2019-01-26T07:39:49.322Z,9.50
2019-01-26T07:40:49.312Z,9.69
2019-01-26T07:41:49.303Z,9.80
2019-01-26T07:42:49.285Z,9.19
2019-01-26T07:43:49.276Z,10.00
2019-01-26T07:44:49.267Z,9.89
2019-01-26T07:45:49.258Z,8.89
2019-01-26T07:46:49.241Z,8.19
2019-01-26T07:47:49.228Z,8.89
2019-01-26T07:48:49.216Z,8.69
2019-01-26T07:49:49.208Z,9.10
2019-01-26T07:50:49.196Z,8.00
2019-01-26T07:51:49.187Z,7.90
2019-01-26T07:52:49.177Z,9.39
2019-01-26T07:53:49.162Z,8.30
2019-01-26T07:54:49.150Z,8.50
2019-01-26T07:55:49.138Z,8.30
2019-01-26T07:56:49.128Z,8.60
2019-01-26T07:57:49.117Z,8.39
2019-01-26T07:58:49.105Z,8.00
2019-01-26T07:59:49.095Z,8.60
2019-01-26T08:00:49.091Z,7.69
2019-01-26T08:01:49.076Z,8.89
2019-01-26T08:02:49.061Z,8.80
2019-01-26T08:03:49.050Z,10.10
2019-01-26T08:04:49.042Z,10.89
2019-01-26T08:05:49.032Z,9.89
2019-01-26T08:06:49.016Z,7.59
2019-01-26T08:07:49.012Z,9.39
2019-01-26T08:08:48.998Z,9.10
2019-01-26T08:09:48.981Z,10.30
2019-01-26T08:10:48.970Z,15.30
2019-01-26T08:11:48.959Z,8.10
2019-01-26T08:12:48.947Z,9.19
2019-01-26T08:13:48.940Z,7.80
2019-01-26T08:14:48.930Z,8.50
2019-01-26T08:15:48.920Z,9.10
2019-01-26T08:16:48.908Z,8.39
2019-01-26T08:17:48.895Z,8.19
2019-01-26T08:18:48.885Z,7.69
2019-01-26T08:19:48.872Z,8.39
2019-01-26T08:20:48.874Z,8.39
2019-01-26T08:21:48.859Z,8.30
2019-01-26T08:22:48.838Z,9.50
2019-01-26T08:23:48.825Z,12.00
2019-01-26T08:24:48.821Z,7.90
2019-01-26T08:25:48.805Z,7.69
2019-01-26T08:26:48.790Z,8.19
2019-01-26T08:27:48.784Z,8.30
2019-01-26T08:28:48.776Z,8.69
2019-01-26T08:29:48.761Z,7.69
2019-01-26T08:30:48.751Z,8.80
2019-01-26T08:31:48.735Z,7.40
2019-01-26T08:32:48.725Z,7.40
2019-01-26T08:33:48.713Z,8.00
2019-01-26T08:34:48.705Z,7.90
2019-01-26T08:35:48.692Z,7.69
2019-01-26T08:36:48.679Z,8.30
2019-01-26T08:37:48.674Z,9.19
2019-01-26T08:38:48.660Z,8.00
2019-01-26T08:39:48.649Z,8.19
2019-01-26T08:40:48.642Z,10.30
2019-01-26T08:41:48.630Z,8.50
2019-01-26T08:42:48.626Z,8.69
2019-01-26T08:43:48.604Z,7.59
2019-01-26T08:44:48.594Z,7.59
2019-01-26T08:45:48.584Z,8.39
2019-01-26T08:46:48.572Z,7.30
2019-01-26T08:47:48.558Z,7.90
2019-01-26T08:48:48.549Z,8.30
2019-01-26T08:49:48.538Z,8.00
2019-01-26T08:50:48.526Z,8.30
2019-01-26T08:51:48.519Z,8.19
2019-01-26T08:52:48.505Z,8.00
2019-01-26T08:53:48.498Z,7.19
2019-01-26T08:54:48.481Z,7.00
2019-01-26T08:55:48.471Z,7.90
2019-01-26T08:56:48.463Z,9.50
2019-01-26T08:57:48.446Z,9.60
2019-01-26T08:58:48.435Z,9.80
2019-01-26T08:59:48.432Z,8.69
2019-01-26T09:00:48.420Z,8.50
2019-01-26T09:01:48.401Z,11.39
2019-01-26T09:02:48.399Z,9.69
2019-01-26T09:03:48.380Z,9.39
2019-01-26T09:04:48.370Z,8.50
2019-01-26T09:05:48.366Z,8.10
2019-01-26T09:06:48.349Z,8.39
2019-01-26T09:07:48.339Z,8.19
2019-01-26T09:08:48.326Z,8.50
2019-01-26T09:09:48.316Z,10.00
2019-01-26T09:10:48.305Z,9.39
2019-01-26T09:11:48.312Z,7.80
2019-01-26T09:12:48.281Z,8.69
2019-01-26T09:13:48.273Z,9.69
2019-01-26T09:14:48.259Z,8.10
2019-01-26T09:15:48.248Z,10.89
2019-01-26T09:16:48.242Z,8.10
2019-01-26T09:17:48.226Z,8.10
2019-01-26T09:18:48.218Z,8.30
2019-01-26T09:19:48.201Z,7.69
2019-01-26T09:20:48.197Z,8.00
2019-01-26T09:21:48.186Z,7.90
2019-01-26T09:22:48.181Z,9.00
2019-01-26T09:23:48.160Z,8.30
2019-01-26T09:24:48.145Z,7.40
2019-01-26T09:25:48.136Z,9.39
2019-01-26T09:26:48.124Z,7.80
2019-01-26T09:27:48.110Z,7.80
2019-01-26T09:28:48.100Z,7.50
2019-01-26T09:29:48.090Z,8.30
2019-01-26T09:30:48.079Z,8.69
2019-01-26T09:31:48.071Z,8.00
2019-01-26T09:32:48.055Z,7.50
2019-01-26T09:33:48.042Z,7.40
2019-01-26T09:34:48.042Z,9.10
2019-01-26T09:35:48.021Z,11.50
2019-01-26T09:36:48.008Z,7.19
2019-01-26T09:37:47.997Z,13.00
2019-01-26T09:38:47.993Z,26.79
2019-01-26T09:39:47.978Z,7.59
2019-01-26T09:40:47.967Z,7.40
2019-01-26T09:41:47.951Z,8.19
2019-01-26T09:42:47.940Z,8.30
2019-01-26T09:43:47.929Z,7.40
2019-01-26T09:44:47.916Z,8.50
2019-01-26T09:45:47.905Z,6.80
2019-01-26T09:46:47.893Z,6.90
2019-01-26T09:47:47.883Z,7.09
2019-01-26T09:48:47.871Z,7.09
2019-01-26T09:49:47.858Z,6.59
2019-01-26T09:50:47.852Z,6.50
2019-01-26T09:51:47.839Z,7.69
2019-01-26T09:52:47.826Z,6.40
2019-01-26T09:53:47.820Z,6.59
2019-01-26T09:54:47.811Z,6.80
2019-01-26T09:55:47.796Z,5.90
2019-01-26T09:56:47.782Z,6.09
2019-01-26T09:57:47.768Z,6.30
2019-01-26T09:58:47.764Z,6.30
2019-01-26T09:59:47.748Z,6.69
2019-01-26T10:00:47.741Z,6.80
2019-01-26T10:01:47.722Z,7.30
2019-01-26T10:02:47.718Z,7.00
2019-01-26T10:03:47.703Z,8.89
2019-01-26T10:04:47.691Z,7.80
2019-01-26T10:05:47.685Z,10.19
2019-01-26T10:06:47.668Z,10.30
2019-01-26T10:07:47.656Z,7.19
2019-01-26T10:08:47.643Z,6.69
2019-01-26T10:09:47.634Z,8.50
2019-01-26T10:10:47.631Z,9.80
2019-01-26T10:11:47.613Z,8.30
2019-01-26T10:12:47.597Z,8.19
2019-01-26T10:13:47.591Z,10.00
2019-01-26T10:14:47.615Z,16.70
2019-01-26T10:15:47.563Z,6.80
2019-01-26T10:16:47.562Z,8.19
2019-01-26T10:17:47.543Z,7.90
2019-01-26T10:18:53.546Z,6.80
2019-01-26T10:20:12.001Z,7.80
2019-01-26T10:21:11.988Z,7.59
2019-01-26T10:22:11.982Z,6.40
2019-01-26T10:23:11.964Z,7.90
2019-01-26T10:24:11.953Z,6.00
2019-01-26T10:25:11.945Z,6.59
2019-01-26T10:26:11.934Z,5.50
2019-01-26T10:27:11.919Z,13.30
2019-01-26T10:28:11.909Z,5.90
2019-01-26T10:29:11.897Z,6.30
2019-01-26T10:30:11.885Z,6.09
2019-01-26T10:31:11.875Z,5.59
2019-01-26T10:32:11.862Z,5.09
2019-01-26T10:33:11.853Z,5.09
2019-01-26T10:34:11.839Z,5.30
2019-01-26T10:35:11.830Z,5.09
2019-01-26T10:36:11.822Z,4.19
2019-01-26T10:37:11.809Z,5.69
2019-01-26T10:38:11.800Z,6.50
2019-01-26T10:39:11.782Z,5.30
2019-01-26T10:40:11.771Z,4.90
2019-01-26T10:41:11.759Z,5.30
2019-01-26T10:42:11.749Z,4.90
2019-01-26T10:43:11.738Z,4.90
2019-01-26T10:44:11.726Z,7.59
2019-01-26T10:45:11.716Z,5.90
2019-01-26T10:46:11.703Z,10.39
2019-01-26T10:47:11.697Z,5.50
2019-01-26T10:48:11.689Z,7.30
2019-01-26T10:49:11.675Z,5.50
2019-01-26T10:50:11.660Z,5.50
2019-01-26T10:51:11.647Z,4.50
2019-01-26T10:52:11.637Z,4.90
2019-01-26T10:53:11.630Z,6.00
2019-01-26T10:54:11.613Z,5.30
2019-01-26T10:55:11.604Z,5.00
2019-01-26T10:56:11.591Z,4.80
2019-01-26T10:57:11.580Z,4.80
2019-01-26T10:58:11.567Z,5.80
2019-01-26T10:59:11.555Z,5.00
2019-01-26T11:00:11.547Z,4.90
2019-01-26T11:01:11.533Z,4.59
2019-01-26T11:02:11.527Z,5.59
2019-01-26T11:03:11.516Z,7.30
2019-01-26T11:04:11.500Z,6.19
2019-01-26T11:05:11.495Z,5.59
2019-01-26T11:06:11.479Z,4.80
2019-01-26T11:07:11.464Z,5.90
2019-01-26T11:08:11.452Z,6.30
2019-01-26T11:09:11.613Z,7.80
2019-01-26T11:10:11.433Z,6.90
2019-01-26T11:11:11.425Z,5.69
2019-01-26T11:12:11.409Z,6.50
2019-01-26T11:13:11.401Z,7.40
2019-01-26T11:14:11.386Z,5.00
2019-01-26T11:15:11.377Z,7.30
2019-01-26T11:16:11.367Z,5.00
2019-01-26T11:17:11.354Z,5.69
2019-01-26T11:18:11.345Z,4.19
2019-01-26T11:19:11.328Z,5.80
2019-01-26T11:20:11.318Z,8.39
2019-01-26T11:21:11.308Z,7.09
2019-01-26T11:22:11.300Z,6.90
2019-01-26T11:23:11.283Z,4.69
2019-01-26T11:24:11.280Z,4.50
2019-01-26T11:25:11.287Z,4.59
2019-01-26T11:26:11.295Z,4.19
2019-01-26T11:27:11.286Z,5.50
2019-01-26T11:28:11.228Z,4.50
2019-01-26T11:29:11.234Z,4.90
2019-01-26T11:30:11.239Z,6.50
2019-01-26T11:31:11.239Z,5.30
2019-01-26T11:32:11.180Z,5.59
2019-01-26T11:33:11.169Z,4.90
2019-01-26T11:34:11.159Z,3.59
2019-01-26T11:35:11.164Z,5.00
2019-01-26T11:36:11.141Z,4.80
2019-01-26T11:37:11.126Z,4.30
2019-01-26T11:38:11.112Z,5.19
2019-01-26T11:39:11.881Z,6.50
2019-01-26T11:40:11.121Z,4.19
2019-01-26T11:41:11.089Z,3.50
2019-01-26T11:42:11.073Z,4.09
2019-01-26T11:43:11.058Z,4.50
2019-01-26T11:44:11.045Z,3.90
2019-01-26T11:45:11.034Z,3.90
2019-01-26T11:46:11.024Z,3.79
2019-01-26T11:47:11.011Z,3.59
2019-01-26T11:48:11.008Z,4.09
2019-01-26T11:49:15.051Z,4.09
2019-01-26T11:50:10.977Z,3.90
2019-01-26T11:51:10.969Z,4.40
2019-01-26T11:52:10.958Z,3.79
2019-01-26T11:53:10.944Z,3.70
2019-01-26T11:54:10.936Z,4.80
2019-01-26T11:55:10.973Z,4.00
2019-01-26T11:56:10.918Z,6.90
2019-01-26T11:57:10.901Z,5.40
2019-01-26T11:58:10.889Z,5.90
2019-01-26T11:59:10.878Z,3.90
2019-01-26T12:00:10.873Z,4.00
2019-01-26T12:01:10.858Z,4.50
2019-01-26T12:02:10.844Z,3.09
2019-01-26T12:03:10.835Z,3.09
2019-01-26T12:04:10.827Z,4.19
2019-01-26T12:05:10.817Z,3.70
2019-01-26T12:06:10.798Z,3.70
2019-01-26T12:07:10.787Z,3.09
2019-01-26T12:08:10.776Z,2.79
2019-01-26T12:09:10.791Z,3.90
2019-01-26T12:10:10.758Z,4.40
2019-01-26T12:11:10.748Z,4.50
2019-01-26T12:12:10.736Z,4.59
2019-01-26T12:13:10.719Z,4.19
2019-01-26T12:14:10.708Z,2.79
2019-01-26T12:15:10.699Z,3.29
2019-01-26T12:16:10.686Z,3.50
2019-01-26T12:17:10.680Z,5.30
2019-01-26T12:18:10.672Z,4.30
2019-01-26T12:19:10.655Z,2.90
2019-01-26T12:20:10.641Z,2.90
2019-01-26T12:21:10.632Z,3.50
2019-01-26T12:22:10.622Z,2.70
2019-01-26T12:23:10.611Z,2.70
2019-01-26T12:24:11.994Z,3.09
2019-01-26T12:25:10.591Z,2.79
2019-01-26T12:26:10.575Z,2.90
2019-01-26T12:27:10.564Z,2.90
2019-01-26T12:28:10.593Z,4.09
2019-01-26T12:29:10.543Z,8.80
2019-01-26T12:30:10.534Z,10.69
2019-01-26T12:31:10.528Z,2.70
2019-01-26T12:32:10.508Z,3.20
2019-01-26T12:33:10.496Z,3.79
2019-01-26T12:34:10.486Z,4.30
2019-01-26T12:35:10.476Z,3.59
2019-01-26T12:36:10.462Z,8.39
2019-01-26T12:37:10.456Z,3.09
2019-01-26T12:38:10.456Z,2.79
2019-01-26T12:39:10.438Z,3.00
2019-01-26T12:40:10.418Z,4.09
2019-01-26T12:41:10.409Z,3.29
2019-01-26T12:42:10.398Z,2.70
2019-01-26T12:43:10.385Z,4.59
2019-01-26T12:44:10.373Z,3.00
2019-01-26T12:45:10.363Z,3.20
2019-01-26T12:46:10.353Z,3.09
2019-01-26T12:47:16.803Z,2.20
2019-01-26T12:48:34.817Z,3.90
2019-01-26T12:49:34.799Z,4.00
2019-01-26T12:50:34.788Z,2.90
2019-01-26T12:51:34.776Z,2.40
2019-01-26T12:52:34.764Z,2.59
2019-01-26T12:53:34.834Z,3.20
2019-01-26T12:54:34.755Z,2.79
2019-01-26T12:55:34.730Z,3.59
2019-01-26T12:56:34.723Z,3.29
2019-01-26T12:57:34.724Z,9.00
2019-01-26T12:58:34.696Z,4.40
2019-01-26T12:59:34.693Z,3.20
2019-01-26T13:00:34.679Z,7.59
2019-01-26T13:01:34.662Z,9.00
2019-01-26T13:02:34.653Z,6.90
2019-01-26T13:03:34.645Z,2.59
2019-01-26T13:04:34.637Z,2.90
2019-01-26T13:05:34.634Z,2.70
2019-01-26T13:06:34.607Z,3.20
2019-01-26T13:07:34.600Z,2.50
2019-01-26T13:08:34.584Z,3.29
2019-01-26T13:09:34.572Z,2.50
2019-01-26T13:10:34.563Z,2.40
2019-01-26T13:11:34.551Z,2.29
2019-01-26T13:12:34.541Z,5.30
2019-01-26T13:13:34.533Z,1.90
2019-01-26T13:14:34.524Z,2.20
2019-01-26T13:15:34.507Z,3.40
2019-01-26T13:16:34.494Z,2.40
2019-01-26T13:17:34.488Z,8.00
2019-01-26T13:18:34.475Z,9.00
2019-01-26T13:19:36.915Z,11.30
2019-01-26T13:20:34.450Z,3.09
2019-01-26T13:21:34.441Z,3.90
2019-01-26T13:22:34.427Z,1.79
2019-01-26T13:23:34.421Z,3.50
2019-01-26T13:24:34.410Z,2.70
2019-01-26T13:25:34.395Z,2.79
2019-01-26T13:26:34.384Z,1.90
2019-01-26T13:27:34.371Z,2.29
2019-01-26T13:28:34.364Z,3.59
2019-01-26T13:29:35.615Z,2.09
2019-01-26T13:30:34.338Z,2.29
2019-01-26T13:31:34.327Z,2.40
2019-01-26T13:32:34.318Z,2.70
2019-01-26T13:33:34.304Z,3.29
2019-01-26T13:34:34.294Z,2.29
2019-01-26T13:35:34.283Z,2.40
2019-01-26T13:36:34.271Z,5.40
2019-01-26T13:37:34.261Z,4.30
2019-01-26T13:38:34.249Z,2.79
2019-01-26T13:39:34.243Z,2.40
2019-01-26T13:40:34.233Z,19.39
2019-01-26T13:41:34.216Z,3.29
2019-01-26T13:42:34.209Z,5.30
2019-01-26T13:43:34.194Z,2.50
2019-01-26T13:44:34.182Z,2.50
2019-01-26T13:45:34.170Z,3.09
2019-01-26T13:46:34.172Z,4.69
2019-01-26T13:47:37.847Z,3.59
2019-01-26T13:48:34.136Z,2.79
2019-01-26T13:49:34.132Z,3.20
2019-01-26T13:50:34.138Z,2.20
2019-01-26T13:51:34.132Z,2.20
2019-01-26T13:52:34.091Z,1.90
2019-01-26T13:53:34.088Z,2.70
2019-01-26T13:54:34.072Z,3.20
2019-01-26T13:55:34.058Z,2.09
2019-01-26T13:56:34.056Z,2.09
2019-01-26T13:57:34.119Z,3.00
2019-01-26T13:58:34.024Z,3.40
2019-01-26T13:59:34.014Z,2.40
2019-01-26T14:00:34.012Z,2.59
2019-01-26T14:01:33.996Z,3.00
2019-01-26T14:02:33.981Z,3.40
2019-01-26T14:03:33.968Z,3.40
2019-01-26T14:04:33.967Z,1.79
2019-01-26T14:05:33.947Z,8.69
2019-01-26T14:06:33.939Z,15.80
2019-01-26T14:07:33.923Z,4.19
2019-01-26T14:08:33.957Z,5.00
2019-01-26T14:09:33.902Z,3.70
2019-01-26T14:10:33.892Z,3.59
2019-01-26T14:11:33.879Z,2.90
2019-01-26T14:12:33.880Z,4.40
2019-01-26T14:13:33.857Z,2.09
2019-01-26T14:14:33.848Z,2.20
2019-01-26T14:15:33.839Z,3.79
2019-01-26T14:16:33.823Z,5.40
2019-01-26T14:17:33.814Z,2.90
2019-01-26T14:18:33.801Z,1.60
2019-01-26T14:19:33.791Z,2.59
2019-01-26T14:20:33.780Z,2.20
2019-01-26T14:21:33.768Z,1.90
2019-01-26T14:22:33.760Z,2.40
2019-01-26T14:23:33.751Z,2.40
2019-01-26T14:24:33.734Z,3.29
2019-01-26T14:25:33.729Z,4.00
2019-01-26T14:26:33.712Z,2.00
2019-01-26T14:27:33.704Z,2.09
2019-01-26T14:28:33.689Z,1.90
2019-01-26T14:29:33.680Z,2.79
2019-01-26T14:30:33.670Z,2.20
2019-01-26T14:31:33.657Z,2.00
2019-01-26T14:32:33.644Z,4.00
2019-01-26T14:33:33.635Z,3.00
2019-01-26T14:34:33.626Z,2.70
2019-01-26T14:35:33.624Z,2.00
2019-01-26T14:36:33.599Z,1.90
2019-01-26T14:37:33.589Z,1.70
2019-01-26T14:38:33.585Z,2.20
2019-01-26T14:39:33.571Z,1.60
2019-01-26T14:40:33.560Z,1.70
2019-01-26T14:41:33.544Z,1.50
2019-01-26T14:42:33.534Z,1.79
2019-01-26T14:43:33.525Z,1.79
2019-01-26T14:44:33.509Z,2.50
2019-01-26T14:45:33.512Z,2.20
2019-01-26T14:46:33.488Z,1.60
2019-01-26T14:47:33.480Z,1.60
2019-01-26T14:48:33.471Z,1.79
2019-01-26T14:49:33.496Z,1.39
2019-01-26T14:50:33.444Z,1.79
2019-01-26T14:51:33.434Z,1.70
2019-01-26T14:52:33.420Z,2.00
2019-01-26T14:53:33.417Z,2.00
2019-01-26T14:54:33.400Z,1.60
2019-01-26T14:55:33.393Z,2.00
2019-01-26T14:56:33.385Z,2.00
2019-01-26T14:57:33.364Z,2.00
2019-01-26T14:58:33.355Z,1.39
2019-01-26T14:59:33.342Z,1.70
2019-01-26T15:00:33.335Z,1.50
2019-01-26T15:01:33.329Z,1.50
2019-01-26T15:02:33.309Z,1.90
2019-01-26T15:03:33.302Z,2.09
2019-01-26T15:04:33.290Z,1.50
2019-01-26T15:05:33.276Z,2.20
2019-01-26T15:06:33.263Z,1.79
2019-01-26T15:07:33.253Z,1.90
2019-01-26T15:08:33.249Z,2.20
2019-01-26T15:09:33.230Z,1.79
2019-01-26T15:10:33.219Z,2.09
2019-01-26T15:11:33.210Z,21.70
2019-01-26T15:12:33.199Z,2.40
2019-01-26T15:13:33.195Z,2.40
2019-01-26T15:14:33.174Z,2.20
2019-01-26T15:15:33.168Z,2.90
2019-01-26T15:16:33.152Z,2.59
2019-01-26T15:17:33.640Z,2.90
2019-01-26T15:18:33.132Z,2.29
2019-01-26T15:19:33.119Z,2.50
2019-01-26T15:20:33.108Z,1.90
2019-01-26T15:21:33.102Z,2.59
2019-01-26T15:22:33.086Z,2.20
2019-01-26T15:23:33.074Z,2.29
2019-01-26T15:24:33.068Z,2.20
2019-01-26T15:25:33.052Z,2.50
2019-01-26T15:26:33.040Z,2.09
2019-01-26T15:27:33.030Z,2.59
2019-01-26T15:28:33.018Z,2.50
2019-01-26T15:29:33.006Z,2.29
2019-01-26T15:30:33.001Z,1.70
2019-01-26T15:31:32.984Z,1.90
2019-01-26T15:32:32.974Z,1.90
2019-01-26T15:33:32.964Z,1.90
2019-01-26T15:34:32.958Z,1.70
2019-01-26T15:35:32.945Z,1.70
2019-01-26T15:36:32.935Z,2.
2019-01-26T15:37:32.920Z,2.
2019-01-26T15:38:32.907Z,2.
2019-01-26T15:39:32.895Z,4.
2019-01-26T15:40:32.884Z,2.
2019-01-26T15:41:32.876Z,1.
2019-01-26T15:42:32.862Z,2.
2019-01-26T15:43:32.853Z,2.
2019-01-26T15:44:32.839Z,2.
2019-01-26T15:45:32.831Z,2.
2019-01-26T15:46:32.819Z,2.
2019-01-26T15:47:32.806Z,2.
2019-01-26T15:48:32.794Z,2.
2019-01-26T15:49:32.784Z,3.
2019-01-26T15:50:32.772Z,2.
2019-01-26T15:51:32.764Z,2.
2019-01-26T15:52:32.750Z,2.
2019-01-26T15:53:32.739Z,2.
2019-01-26T15:54:32.744Z,2.
2019-01-26T15:55:32.719Z,2.
2019-01-26T15:56:32.708Z,2.
2019-01-26T15:57:32.695Z,3.
2019-01-26T15:58:32.683Z,2.
2019-01-26T15:59:32.672Z,2.
2019-01-26T16:00:32.660Z,2.
2019-01-26T16:01:32.657Z,3.
2019-01-26T16:02:32.641Z,3.
2019-01-26T16:03:32.631Z,2.
2019-01-26T16:04:32.622Z,2.
2019-01-26T16:05:32.606Z,2.
2019-01-26T16:06:32.597Z,2.
2019-01-26T16:08:32.574Z,2.
2019-01-26T16:09:32.561Z,2.
2019-01-26T16:10:32.552Z,2.
2019-01-26T16:11:32.536Z,9.
2019-01-26T16:12:32.525Z,2.
2019-01-26T16:13:32.516Z,2.
2019-01-26T16:14:32.505Z,2.
2019-01-26T16:15:32.493Z,3.
2019-01-26T16:16:32.485Z,2.
2019-01-26T16:17:32.475Z,2.
2019-01-26T16:18:32.461Z,2.
2019-01-26T16:19:32.449Z,2.
2019-01-26T16:20:32.436Z,2.
2019-01-26T16:21:32.425Z,2.
2019-01-26T16:22:32.435Z,4.
2019-01-26T16:23:32.403Z,3.
2019-01-26T16:26:32.370Z,3.
2019-01-26T16:28:32.347Z,2.
2019-01-26T16:30:32.325Z,1
2019-01-26T16:34:32.335Z,2.
2019-01-26T17:00:31.989Z,4.
2019-01-26T17:02:31.966Z,4.
2019-01-26T17:04:31.944Z,4.
2019-01-26T17:05:31.935Z,4.
2019-01-26T17:07:31.931Z,4.
2019-01-26T17:08:31.899Z,4.
2019-01-26T17:09:31.892Z,8.
2019-01-26T17:10:34.244Z,5.
2019-01-26T17:11:31.869Z,4.
2019-01-26T17:12:31.857Z,6.
2019-01-26T17:13:31.845Z,5.
2019-01-26T17:14:31.830Z,5.
2019-01-26T17:15:31.823Z,5.
2019-01-26T17:16:31.811Z,6.
2019-01-26T17:18:31.793Z,5.
2019-01-26T17:19:31.780Z,4.
2019-01-26T17:20:34.994Z,4.
2019-01-26T17:21:31.753Z,5.
2019-01-26T17:22:31.749Z,4.
2019-01-26T17:24:32.924Z,5.
2019-01-26T17:25:31.712Z,5.
2019-01-26T17:29:31.662Z,4.
2019-01-26T17:31:31.644Z,5.
2019-01-26T17:32:31.629Z,5.
2019-01-26T17:33:31.619Z,5.
2019-01-26T17:34:31.617Z,5.
2019-01-26T17:35:31.599Z,6.
2019-01-26T17:36:31.590Z,6.
2019-01-26T17:37:31.583Z,5.
2019-01-26T17:38:31.566Z,5.
2019-01-26T17:39:31.559Z,5.
2019-01-26T17:40:31.540Z,5.
2019-01-26T17:41:31.533Z,5.
2019-01-26T17:42:31.521Z,5.
2019-01-26T17:43:31.508Z,5.
2019-01-26T17:44:31.503Z,5.
2019-01-26T17:45:31.493Z,6.
2019-01-26T17:46:31.475Z,5.
2019-01-26T17:47:31.462Z,5.
2019-01-26T17:48:31.450Z,5.
2019-01-26T17:49:31.442Z,5.
2019-01-26T17:50:31.429Z,5.
2019-01-26T17:51:31.417Z,5.
2019-01-26T17:52:31.407Z,5.
2019-01-26T17:53:31.398Z,5.
2019-01-26T17:54:31.386Z,5.
2019-01-26T17:55:31.377Z,5.
2019-01-26T17:56:31.364Z,5.
2019-01-26T17:57:31.350Z,5.
2019-01-26T17:58:31.338Z,5.
2019-01-26T17:59:31.332Z,6.
2019-01-26T18:00:31.324Z,5.
2019-01-26T18:01:31.304Z,6.
2019-01-26T18:02:31.297Z,5.
2019-01-26T18:03:31.304Z,9.
2019-01-26T18:04:31.278Z,7.
2019-01-26T18:05:31.274Z,6.
2019-01-26T18:06:31.255Z,6.
2019-01-26T18:07:31.240Z,6.
2019-01-26T18:08:31.229Z,5.
2019-01-26T18:09:31.215Z,5.
2019-01-26T18:10:31.204Z,5.
2019-01-26T18:11:31.198Z,5.
2019-01-26T18:12:31.182Z,5.
2019-01-26T18:13:31.173Z,5.
2019-01-26T18:14:31.171Z,5.
2019-01-26T18:15:31.149Z,4.
2019-01-26T18:16:31.136Z,5.
2019-01-26T18:17:31.129Z,5.
2019-01-26T18:18:31.121Z,5.
2019-01-26T18:19:31.105Z,7.
2019-01-26T18:20:31.092Z,5.
2019-01-26T18:21:31.083Z,5.
2019-01-26T18:22:31.072Z,5.
2019-01-26T18:23:31.060Z,5.
2019-01-26T18:24:31.047Z,5.
2019-01-26T18:25:31.037Z,4.
2019-01-26T18:26:31.026Z,5.
2019-01-26T18:27:31.015Z,4.
2019-01-26T18:28:31.003Z,5.
2019-01-26T18:29:31.021Z,5.
2019-01-26T18:30:30.981Z,4.
2019-01-26T18:31:30.973Z,5.
2019-01-26T18:32:30.958Z,5.
2019-01-26T18:33:30.947Z,5.
2019-01-26T18:34:30.942Z,5.
2019-01-26T18:35:30.924Z,5.
2019-01-26T18:36:30.919Z,5.
2019-01-26T18:37:30.902Z,5.
2019-01-26T18:38:30.891Z,5.
2019-01-26T18:39:30.887Z,5.
2019-01-26T18:40:30.869Z,6.
2019-01-26T18:41:30.865Z,6.
2019-01-26T18:42:30.854Z,6.
2019-01-26T18:43:30.843Z,6.
2019-01-26T18:44:30.831Z,5.
2019-01-26T18:45:30.817Z,6.
2019-01-26T18:46:30.803Z,6.
2019-01-26T18:47:30.791Z,13.
2019-01-26T18:48:30.779Z,6.
2019-01-26T18:49:30.768Z,7.
2019-01-26T18:50:30.757Z,7.
2019-01-26T18:51:30.747Z,6.
2019-01-26T18:52:30.738Z,6.
2019-01-26T18:53:30.727Z,7.
2019-01-26T18:54:30.713Z,5.
2019-01-26T18:55:30.700Z,5.
2019-01-26T18:56:30.695Z,6.
2019-01-26T18:57:30.676Z,6.
2019-01-26T18:58:30.666Z,5.
2019-01-26T18:59:30.682Z,5.
2019-01-26T19:00:30.645Z,6.
2019-01-26T19:01:30.639Z,6.
2019-01-26T19:02:30.621Z,6.
2019-01-26T19:03:30.611Z,6.
2019-01-26T19:04:30.597Z,7.
2019-01-26T19:05:30.586Z,6.
2019-01-26T19:06:30.579Z,6.
2019-01-26T19:07:30.563Z,6.
2019-01-26T19:08:30.556Z,6.
2019-01-26T19:09:30.541Z,6.
2019-01-26T19:10:30.532Z,5.
2019-01-26T19:11:30.526Z,5.
2019-01-26T19:12:30.509Z,5.
2019-01-26T19:13:30.494Z,6.
2019-01-26T19:14:30.490Z,6.
2019-01-26T19:15:30.474Z,6.
2019-01-26T19:16:30.461Z,5.
2019-01-26T19:17:30.450Z,6.
2019-01-26T19:18:30.443Z,6.
2019-01-26T19:19:30.427Z,6.
2019-01-26T19:20:30.417Z,6.
2019-01-26T19:21:30.406Z,6.
2019-01-26T19:22:30.397Z,6.
2019-01-26T19:23:30.384Z,6.
2019-01-26T19:24:30.375Z,6.
2019-01-26T19:25:30.364Z,6.
2019-01-26T19:26:30.350Z,6.
2019-01-26T19:27:30.336Z,6.
2019-01-26T19:28:30.323Z,6.
2019-01-26T19:29:30.318Z,5.
2019-01-26T19:30:30.308Z,7.
2019-01-26T19:31:30.294Z,7.
2019-01-26T19:32:30.281Z,7.
2019-01-26T19:33:30.267Z,6.
2019-01-26T19:34:30.257Z,6.
2019-01-26T19:35:30.244Z,7.
2019-01-26T19:36:30.240Z,6.
2019-01-26T19:37:30.224Z,5.
2019-01-26T19:38:30.210Z,6.
2019-01-26T19:39:30.200Z,6.
2019-01-26T19:40:30.188Z,15.
2019-01-26T19:41:30.177Z,11.
2019-01-26T19:42:30.168Z,9.
2019-01-26T19:43:30.160Z,10.
2019-01-26T19:44:30.149Z,5.
2019-01-26T19:45:30.133Z,6.